Dobrodošli na spletni strani vremenske postaje Senovo. Vse informacije so informativnega značaja, saj vremenska postaja ni del državne mreže meteoroloških postaj. AKTUALNIH OBVESTIL NI.


Sneg/Led Od: 21-02-2018 00:00 Do: 23-02-2018 23:59 Opozorilo za: Sneg/Led Stopnja: Rumena info button
Veter Od: 21-02-2018 00:00 Do: 22-02-2018 23:59 Opozorilo za: Veter Stopnja: Rumena info button

Pogled proti Armezu več informacij Pogled proti Armezu


Lisca več informacij Lisca


Radar strel več informacij blitzortung!


opozorilo za sneg/led več informacij rain snow radar


Obiščite še:

Template documentation
and downloads

And another site



Weather Underground, zgodovina - Tekstovno

Dnevni povzetek za Januar 15, 2018 Enote:  Metrično    Angleško   Obe
« Predhodni Dan
Naslednji Dan »
Dnevni Tedenski Mesečni Letni Po meri
  Višja: Nižja: Povprečje:
Temperatura: -17.8 °C -18.4 °C -17.8 °C
Točka rosišča: -17.8 °C -20 °C -19.6 °C
Vlažnost: Humidity % 72 % 79 %
Hitrost vetra: 0 km/h 0 km/h 3.7 km/h
Sunki vetra: 0 km/h - -
Veter:- - SE
Zračni tlak: 0 hPa 34405.1 hPa -
Padavine: 0 mm    
Historical Graphs
 
 
Tabelarni podarki za Januar 15, 2018
Čas Temperatura Točka rosišča Zračni tlak Veter Hitrost vetra Sunki vetra Vlažnost Intenziteta padavin (urna)
-17.8 °C -17.8 °C 0 hPa Calm     Humidity % 0 mm
00:22 -18.1 °C -19.3 °C 34669.3 hPa ESE 8.2 km/h 16.3 km/h 85 % 0 mm
00:29 -18.1 °C -19.3 °C 34669.3 hPa ESE 9 km/h 12.7 km/h 85 % 0 mm
00:37 -18.1 °C -19.3 °C 34669.3 hPa ESE 8.9 km/h 14.5 km/h 85 % 0 mm
00:45 -18.2 °C -19.4 °C 34669.3 hPa ESE 8.9 km/h 11.1 km/h 85 % 0 mm
00:52 -18.2 °C -19.4 °C 34669.3 hPa ESE 8.2 km/h 14 km/h 85 % 0 mm
00:58 -18.2 °C -19.4 °C 34703.1 hPa ESE 6.8 km/h 14 km/h 85 % 0 mm
01:08 -18.2 °C -19.4 °C 34703.1 hPa ESE 6.9 km/h 14.5 km/h 85 % 0 mm
01:14 -18.2 °C -19.4 °C 34669.3 hPa ESE 6.8 km/h 14.5 km/h 85 % 0 mm
01:19 -18.2 °C -19.4 °C 34669.3 hPa ESE 7.2 km/h 14.5 km/h 85 % 0 mm
01:28 -18.2 °C -19.4 °C 34703.1 hPa ESE 8 km/h 12.7 km/h 85 % 0 mm
01:41 -18.2 °C -19.4 °C 34703.1 hPa ESE 8.2 km/h 16.3 km/h 85 % 0 mm
01:46 -18.2 °C -19.4 °C 34703.1 hPa SE 9 km/h 16.3 km/h 85 % 0 mm
01:59 -18.3 °C -19.5 °C 34703.1 hPa ESE 9 km/h 15 km/h 85 % 0 mm
02:14 -18.3 °C -19.5 °C 34703.1 hPa ESE 8 km/h 12.2 km/h 85 % 0 mm
02:22 -18.3 °C -19.5 °C 34703.1 hPa SE 7.6 km/h 12.7 km/h 85 % 0 mm
02:31 -18.3 °C -19.5 °C 34703.1 hPa ESE 7.2 km/h 12.7 km/h 85 % 0 mm
02:40 -18.3 °C -19.6 °C 34703.1 hPa ESE 7.2 km/h 11.1 km/h 85 % 0 mm
02:45 -18.3 °C -19.6 °C 34703.1 hPa ESE 6 km/h 10.3 km/h 85 % 0 mm
02:54 -18.3 °C -19.6 °C 34703.1 hPa ESE 6.3 km/h 10.3 km/h 85 % 0 mm
03:03 -18.3 °C -19.6 °C 34703.1 hPa ESE 8.2 km/h 15 km/h 85 % 0 mm
03:29 -18.3 °C -19.6 °C 34669.3 hPa ESE 9 km/h 18.7 km/h 85 % 0 mm
03:34 -18.3 °C -19.6 °C 34669.3 hPa ESE 10.3 km/h 18.7 km/h 85 % 0 mm
03:40 -18.3 °C -19.6 °C 34669.3 hPa ESE 9.3 km/h 15.6 km/h 85 % 0 mm
03:45 -18.3 °C -19.6 °C 34669.3 hPa SE 6.9 km/h 12.7 km/h 85 % 0 mm
03:54 -18.3 °C -19.6 °C 34669.3 hPa SE 8 km/h 16.3 km/h 85 % 0 mm
04:01 -18.3 °C -19.6 °C 34669.3 hPa ESE 6 km/h 10.3 km/h 85 % 0 mm
04:06 -18.3 °C -19.6 °C 34669.3 hPa ESE 5 km/h 9.8 km/h 85 % 0 mm
04:25 -18.3 °C -19.6 °C 34669.3 hPa ESE 3.9 km/h 8.9 km/h 85 % 0 mm
04:31 -18.3 °C -19.6 °C 34669.3 hPa SE 5.5 km/h 11.1 km/h 85 % 0 mm
04:38 -18.3 °C -19.6 °C 34669.3 hPa SSE 7.6 km/h 11.1 km/h 85 % 0 mm
04:54 -18.3 °C -19.6 °C 34669.3 hPa SW 5.1 km/h 7.6 km/h 85 % 0 mm
05:04 -18.3 °C -19.6 °C 34669.3 hPa SW 5 km/h 9.8 km/h 85 % 0 mm
05:14 -18.4 °C -19.6 °C 34669.3 hPa WSW 6 km/h 9.3 km/h 85 % 0 mm
05:40 -18.3 °C -19.6 °C 34669.3 hPa ESE 1 km/h 5.1 km/h 85 % 0 mm
05:52 -18.3 °C -19.6 °C 34669.3 hPa SE 2.3 km/h 6.4 km/h 85 % 0 mm
06:00 -18.3 °C -19.6 °C 34669.3 hPa SE 2.6 km/h 6.9 km/h 85 % 0 mm
06:11 -18.3 °C -19.6 °C 34669.3 hPa SE 4.3 km/h 6.9 km/h 85 % 0 mm
06:22 -18.3 °C -19.6 °C 34669.3 hPa SE 2.3 km/h 6.4 km/h 85 % 0 mm
06:32 -18.3 °C -19.6 °C 34669.3 hPa SE 1 km/h 6.9 km/h 84 % 0 mm
06:49 -18.3 °C -19.6 °C 34669.3 hPa Calm     84 % 0 mm
06:54 -18.3 °C -19.6 °C 34669.3 hPa SSW 0.8 km/h 5.1 km/h 84 % 0 mm
07:04 -18.3 °C -19.6 °C 34669.3 hPa WSW 2.9 km/h 6.9 km/h 85 % 0 mm
07:10 -18.3 °C -19.6 °C 34669.3 hPa WSW 4.3 km/h 6.9 km/h 85 % 0 mm
07:15 -18.3 °C -19.6 °C 34669.3 hPa SW 1.6 km/h 5.1 km/h 85 % 0 mm
07:34 -18.3 °C -19.7 °C 34669.3 hPa SE 2.9 km/h 8.9 km/h 84 % 0 mm
07:46 -18.3 °C -19.7 °C 34669.3 hPa SE 5.5 km/h 8.9 km/h 84 % 0 mm
07:54 -18.3 °C -19.6 °C 34669.3 hPa SE 5.5 km/h 9.3 km/h 84 % 0 mm
08:04 -18.3 °C -19.6 °C 34703.1 hPa SSE 3.7 km/h 8.9 km/h 84 % 0 mm
08:15 -18.3 °C -19.7 °C 34703.1 hPa SSE 2.9 km/h 8 km/h 83 % 0 mm
08:21 -18.2 °C -19.6 °C 34703.1 hPa SSE 3.9 km/h 9.8 km/h 83 % 0 mm
08:26 -18.2 °C -19.6 °C 34703.1 hPa South 3.7 km/h 9.3 km/h 83 % 0 mm
08:47 -18.2 °C -19.6 °C 34703.1 hPa SW 4.2 km/h 6.4 km/h 83 % 0 mm
08:53 -18.2 °C -19.6 °C 34703.1 hPa SW 2.3 km/h 5.6 km/h 83 % 0 mm
08:58 -18.2 °C -19.7 °C 34703.1 hPa SW 0.3 km/h 3.4 km/h 82 % 0 mm
09:12 -18.1 °C -19.6 °C 34703.1 hPa Calm     82 % 0 mm
09:20 -18.1 °C -19.6 °C 34703.1 hPa Calm     82 % 0 mm
09:28 -18.1 °C -19.6 °C 34703.1 hPa ENE 1.3 km/h 7.6 km/h 82 % 0 mm
09:37 -18.1 °C -19.6 °C 34703.1 hPa ENE 3.4 km/h 7.6 km/h 81 % 0 mm
09:42 -18.1 °C -19.6 °C 34703.1 hPa East 1.6 km/h 6.4 km/h 81 % 0 mm
09:48 -18 °C -19.6 °C 34703.1 hPa ESE 3.1 km/h 6.4 km/h 81 % 0 mm
10:01 -17.9 °C -19.6 °C 34703.1 hPa ENE 7.2 km/h 9.8 km/h 80 % 0 mm
10:06 -17.9 °C -19.6 °C 34703.1 hPa ENE 7.6 km/h 9.8 km/h 80 % 0 mm
10:16 -17.8 °C -19.5 °C 34703.1 hPa East 3.4 km/h 8 km/h 80 % 0 mm
10:24 -17.7 °C -19.4 °C 34703.1 hPa East 4.7 km/h 8 km/h 80 % 0 mm
10:29 -17.7 °C -19.3 °C 34703.1 hPa ENE 4.3 km/h 8 km/h 80 % 0 mm
10:35 -17.6 °C -19.3 °C 34703.1 hPa East 4.3 km/h 8 km/h 80 % 0 mm
10:40 -17.6 °C -19.3 °C 34703.1 hPa ESE 3.4 km/h 6.4 km/h 80 % 0 mm
10:57 -17.5 °C -19.3 °C 34703.1 hPa NE 2.3 km/h 6.4 km/h 79 % 0 mm
11:04 -17.5 °C -19.3 °C 34703.1 hPa NE 1.8 km/h 7.6 km/h 79 % 0 mm
11:12 -17.5 °C -19.3 °C 34703.1 hPa NE 2.1 km/h 6.9 km/h 79 % 0 mm
11:18 -17.4 °C -19.3 °C 34703.1 hPa NE 0.8 km/h 6.4 km/h 78 % 0 mm
11:25 -17.4 °C -19.3 °C 34703.1 hPa NNE 1.3 km/h 6.4 km/h 78 % 0 mm
11:41 -17.3 °C -19.2 °C 34669.3 hPa SSE 3.9 km/h 9.8 km/h 78 % 0 mm
11:50 -17.2 °C -19.2 °C 34669.3 hPa SSE 2.9 km/h 6.9 km/h 77 % 0 mm
11:55 -17.2 °C -19.2 °C 34669.3 hPa SSW 2.3 km/h 8.9 km/h 77 % 0 mm
12:01 -17.2 °C -19.2 °C 34669.3 hPa SW 2.9 km/h 6.4 km/h 77 % 0 mm
12:07 -17.2 °C -19.2 °C 34669.3 hPa SSW 2.6 km/h 6.4 km/h 77 % 0 mm
12:17 -17.1 °C -19.2 °C 34669.3 hPa ENE 2.3 km/h 8 km/h 76 % 0 mm
12:22 -17.1 °C -19.1 °C 34669.3 hPa East 3.9 km/h 9.8 km/h 76 % 0 mm
12:28 -17.1 °C -19.1 °C 34669.3 hPa South 4.3 km/h 9.8 km/h 76 % 0 mm
12:33 -17.1 °C -19.1 °C 34669.3 hPa SSW 3.7 km/h 8 km/h 76 % 0 mm
12:43 -17.1 °C -19.3 °C 34635.4 hPa SSW 1.6 km/h 8.9 km/h 75 % 0 mm
12:48 -17.1 °C -19.3 °C 34635.4 hPa South 5.1 km/h 14.5 km/h 75 % 0 mm
12:53 -17 °C -19.2 °C 34635.4 hPa SSE 6 km/h 14.5 km/h 75 % 0 mm
12:59 -17 °C -19.2 °C 34601.5 hPa SSE 5.5 km/h 10.3 km/h 75 % 0 mm
13:07 -17 °C -19.3 °C 34601.5 hPa South 6.3 km/h 12.7 km/h 74 % 0 mm
13:13 -17 °C -19.3 °C 34601.5 hPa SSW 5.1 km/h 8.9 km/h 74 % 0 mm
13:19 -17 °C -19.3 °C 34601.5 hPa SSW 5.5 km/h 9.3 km/h 74 % 0 mm
13:24 -17.1 °C -19.3 °C 34601.5 hPa SSW 6.4 km/h 9.8 km/h 74 % 0 mm
13:32 -17.1 °C -19.5 °C 34635.4 hPa South 4.7 km/h 12.7 km/h 73 % 0 mm
13:37 -17.2 °C -19.6 °C 34635.4 hPa SSW 3.4 km/h 12.7 km/h 73 % 0 mm
13:51 -17.2 °C -19.6 °C 34635.4 hPa SE 5.6 km/h 9.8 km/h 73 % 0 mm
14:02 -17.2 °C -19.6 °C 34601.5 hPa ESE 2.3 km/h 8 km/h 73 % 0 mm
14:08 -17.2 °C -19.6 °C 34601.5 hPa SSE 3.1 km/h 9.3 km/h 73 % 0 mm
14:18 -17.2 °C -19.6 °C 34601.5 hPa SE 5.6 km/h 11.1 km/h 73 % 0 mm
14:24 -17.2 °C -19.6 °C 34601.5 hPa SSE 4.7 km/h 8.9 km/h 73 % 0 mm
14:35 -17.2 °C -19.7 °C 34601.5 hPa SSE 7.2 km/h 11.1 km/h 72 % 0 mm
14:42 -17.2 °C -19.7 °C 34601.5 hPa SSE 6 km/h 11.1 km/h 72 % 0 mm
14:48 -17.2 °C -19.7 °C 34601.5 hPa SSW 5.6 km/h 9.8 km/h 72 % 0 mm
15:04 -17.3 °C -19.7 °C 34601.5 hPa SW 5.6 km/h 14.5 km/h 73 % 0 mm
15:16 -17.3 °C -19.7 °C 34567.7 hPa South 4.7 km/h 7.6 km/h 73 % 0 mm
15:23 -17.3 °C -19.7 °C 34567.7 hPa South 3.4 km/h 7.6 km/h 73 % 0 mm
15:29 -17.3 °C -19.7 °C 34567.7 hPa SSW 3.4 km/h 8 km/h 73 % 0 mm
15:35 -17.4 °C -19.8 °C 34567.7 hPa South 4.2 km/h 8 km/h 73 % 0 mm
15:40 -17.4 °C -19.8 °C 34567.7 hPa SE 5.1 km/h 10.3 km/h 73 % 0 mm
15:48 -17.4 °C -19.8 °C 34567.7 hPa SE 5.6 km/h 10.3 km/h 73 % 0 mm
15:55 -17.4 °C -19.8 °C 34567.7 hPa SE 5.1 km/h 9.8 km/h 73 % 0 mm
16:08 -17.4 °C -19.8 °C 34567.7 hPa SE 6 km/h 8.9 km/h 73 % 0 mm
16:18 -17.4 °C -19.7 °C 34567.7 hPa SE 3.7 km/h 10.3 km/h 74 % 0 mm
16:28 -17.5 °C -19.8 °C 34533.8 hPa SE 1.3 km/h 6.4 km/h 74 % 0 mm
16:41 -17.6 °C -19.8 °C 34567.7 hPa SSE 2.1 km/h 7.6 km/h 74 % 0 mm
16:49 -17.6 °C -19.8 °C 34567.7 hPa SE 2.6 km/h 8.9 km/h 74 % 0 mm
17:05 -17.6 °C -19.9 °C 34567.7 hPa ESE 2.1 km/h 8 km/h 74 % 0 mm
17:14 -17.6 °C -19.9 °C 34567.7 hPa SSE 1 km/h 6.4 km/h 74 % 0 mm
17:21 -17.6 °C -19.9 °C 34567.7 hPa SE 4.3 km/h 9.8 km/h 74 % 0 mm
17:26 -17.6 °C -19.9 °C 34567.7 hPa SE 2.9 km/h 9.8 km/h 74 % 0 mm
17:45 -17.7 °C -19.9 °C 34567.7 hPa SSE 2.3 km/h 7.6 km/h 74 % 0 mm
17:52 -17.7 °C -20 °C 34567.7 hPa SSE 0.3 km/h 3.4 km/h 74 % 0 mm
17:57 -17.7 °C -20 °C 34567.7 hPa SSE 0.3 km/h 4.2 km/h 74 % 0 mm
18:10 -17.7 °C -20 °C 34567.7 hPa South 1.3 km/h 6.4 km/h 74 % 0 mm
18:16 -17.7 °C -20 °C 34567.7 hPa SSW 1.8 km/h 6.4 km/h 74 % 0 mm
18:35 -17.7 °C -19.9 °C 34533.8 hPa West 0.3 km/h 4.2 km/h 75 % 0 mm
18:40 -17.7 °C -19.9 °C 34533.8 hPa SW 0.3 km/h 2.9 km/h 75 % 0 mm
18:48 -17.7 °C -19.9 °C 34533.8 hPa Calm     75 % 0 mm
18:57 -17.8 °C -19.9 °C 34533.8 hPa Calm   4.2 km/h 75 % 0 mm
19:14 -17.7 °C -19.9 °C 34496.6 hPa SW 0.3 km/h 4.2 km/h 75 % 0 mm
19:19 -17.7 °C -19.9 °C 34496.6 hPa South 0.3 km/h 8 km/h 75 % 0 mm
19:31 -17.7 °C -19.8 °C 34496.6 hPa South 0.5 km/h 4.2 km/h 76 % 0 mm
19:48 -17.7 °C -19.8 °C 34496.6 hPa East 0.3 km/h 5.6 km/h 76 % 0 mm
19:55 -17.7 °C -19.8 °C 34496.6 hPa SE 2.1 km/h 6.9 km/h 76 % 0 mm
20:01 -17.7 °C -19.8 °C 34476.3 hPa SW 2.1 km/h 6.9 km/h 76 % 0 mm
20:10 -17.7 °C -19.8 °C 34476.3 hPa WSW 1.8 km/h 6.9 km/h 76 % 0 mm
20:37 -17.7 °C -19.7 °C 34476.3 hPa Calm     77 % 0 mm
20:42 -17.7 °C -19.7 °C 34496.6 hPa Calm     77 % 0 mm
21:06 -17.8 °C -19.8 °C 34496.6 hPa Calm     77 % 0 mm
21:11 -17.7 °C -19.7 °C 34496.6 hPa Calm     77 % 0 mm
21:16 -17.8 °C -19.7 °C 34496.6 hPa Calm     78 % 0 mm
21:24 -17.8 °C -19.7 °C 34496.6 hPa Calm     78 % 0 mm
21:29 -17.8 °C -19.7 °C 34476.3 hPa Calm     78 % 0 mm
21:46 -17.7 °C -19.6 °C 34476.3 hPa NE 0.5 km/h 6.4 km/h 78 % 0 mm
21:47 -17.7 °C -19.6 °C 34476.3 hPa NE 0.8 km/h 6.4 km/h 78 % 0 mm
21:48 -17.7 °C -19.6 °C 34476.3 hPa NE 1 km/h 6.4 km/h 78 % 0 mm
21:49 -17.7 °C -19.6 °C 34476.3 hPa NE 1 km/h 6.4 km/h 78 % 0 mm
21:50 -17.7 °C -19.6 °C 34476.3 hPa NE 1 km/h 6.4 km/h 78 % 0 mm
21:51 -17.7 °C -19.6 °C 34476.3 hPa NE 1 km/h 6.4 km/h 78 % 0 mm
21:52 -17.7 °C -19.6 °C 34476.3 hPa NE 1 km/h 5.6 km/h 78 % 0 mm
21:53 -17.7 °C -19.6 °C 34476.3 hPa NE 0.8 km/h 5.6 km/h 78 % 0 mm
22:02 -17.7 °C -19.6 °C 34428.8 hPa Calm     78 % 0 mm
22:06 -17.7 °C -19.6 °C 34428.8 hPa Calm   5.1 km/h 78 % 0 mm
22:13 -17.7 °C -19.6 °C 34405.1 hPa ENE 2.9 km/h 6.9 km/h 78 % 0 mm
22:17 -17.7 °C -19.6 °C 34405.1 hPa ENE 2.6 km/h 6.9 km/h 78 % 0 mm
22:26 -17.7 °C -19.6 °C 34428.8 hPa West 3.1 km/h 9.8 km/h 78 % 0 mm
22:58 -17.7 °C -19.5 °C 34476.3 hPa WSW 1.8 km/h 8 km/h 79 % 0 mm
23:19 -17.7 °C -19.5 °C 34428.8 hPa WSW 2.6 km/h 6.9 km/h 79 % 0 mm
23:26 -17.7 °C -19.5 °C 34428.8 hPa Calm     79 % 0 mm
23:44 -17.8 °C -19.5 °C 34405.1 hPa Calm     80 % 0 mm
Vremenska postaja Senovo
Podatki zbrani iz Weather Underground - 2.25 mb

Script developed by  Jim McMurry - jmcmurry@mwt.net Adapted for the template by  Wim van der Kuil - Leuven-Template.eu

Vremenski podatki so objavljeni na:

European Weather Network

WeatherCloud

Weather Underground

AWEKAS

HAMweather, WeatherForYou, PWS Weather

MapView

Geostik

Slovenia weather network

Oprema, ki se uporablja:

Vremenski program
Cumulus

Vremenski server
Asus

Cumulus

Asus